createdAt,value
2023-03-16T00:00:56.670Z,29.40
2023-03-16T00:03:24.712Z,32.40
2023-03-16T00:05:55.767Z,29.33
2023-03-16T00:08:24.095Z,29.25
2023-03-16T00:10:54.030Z,27.70
2023-03-16T00:13:24.709Z,31.35
2023-03-16T00:15:53.694Z,34.08
2023-03-16T00:18:22.653Z,34.72
2023-03-16T00:20:56.748Z,38.70
2023-03-16T00:23:27.174Z,36.83
2023-03-16T00:25:55.736Z,30.30
2023-03-16T00:28:23.949Z,39.08
2023-03-16T00:30:52.277Z,34.47
2023-03-16T00:33:20.232Z,32.78
2023-03-16T00:35:50.152Z,30.85
2023-03-16T00:38:20.544Z,28.45
2023-03-16T00:40:51.223Z,34.75
2023-03-16T00:43:19.137Z,35.20
2023-03-16T00:45:47.458Z,27.95
2023-03-16T00:48:16.466Z,24.73
2023-03-16T00:50:44.390Z,28.98
2023-03-16T00:53:12.228Z,27.85
2023-03-16T00:55:41.560Z,27.55
2023-03-16T00:58:09.638Z,27.05
2023-03-16T01:00:37.639Z,33.97
2023-03-16T01:03:05.601Z,25.40
2023-03-16T01:05:33.696Z,22.52
2023-03-16T01:08:02.771Z,22.42
2023-03-16T01:10:30.762Z,25.15
2023-03-16T01:12:59.980Z,22.23
2023-03-16T01:15:28.187Z,26.25
2023-03-16T01:17:56.130Z,23.73
2023-03-16T01:20:24.581Z,29.40
2023-03-16T01:22:52.536Z,36.22
2023-03-16T01:25:21.192Z,36.00
2023-03-16T01:27:49.043Z,36.05
2023-03-16T01:30:18.467Z,33.83
2023-03-16T01:32:46.472Z,37.72
2023-03-16T01:35:14.761Z,32.53
2023-03-16T01:37:42.772Z,33.90
2023-03-16T01:40:12.678Z,41.08
2023-03-16T01:42:47.368Z,36.50
2023-03-16T01:45:53.779Z,38.28
2023-03-16T01:48:25.405Z,43.17
2023-03-16T01:50:54.249Z,39.33
2023-03-16T01:53:24.131Z,35.13
2023-03-16T01:55:55.181Z,35.95
2023-03-16T01:58:23.785Z,39.97
2023-03-16T02:00:51.697Z,39.40
2023-03-16T02:03:21.881Z,39.05
2023-03-16T02:05:57.319Z,36.63
2023-03-16T02:08:26.281Z,35.95
2023-03-16T02:10:56.500Z,27.55
2023-03-16T02:13:25.858Z,30.20
2023-03-16T02:15:54.230Z,28.67
2023-03-16T02:18:23.218Z,26.35
2023-03-16T02:20:58.205Z,25.20
2023-03-16T02:23:26.774Z,31.35
2023-03-16T02:26:02.545Z,30.42
2023-03-16T02:28:38.207Z,26.77
2023-03-16T02:31:08.292Z,22.27
2023-03-16T02:33:36.682Z,23.40
2023-03-16T02:36:04.742Z,24.42
2023-03-16T02:38:32.935Z,24.67
2023-03-16T02:41:06.940Z,24.33
2023-03-16T02:43:37.140Z,26.63
2023-03-16T02:46:07.010Z,33.42
2023-03-16T02:48:42.681Z,24.77
2023-03-16T02:51:11.463Z,25.52
2023-03-16T02:53:39.376Z,23.63
2023-03-16T02:56:07.764Z,26.58
2023-03-16T02:58:35.837Z,33.13
2023-03-16T03:01:03.877Z,29.15
2023-03-16T03:03:34.566Z,27.58
2023-03-16T03:06:02.646Z,24.20
2023-03-16T03:08:32.763Z,23.98
2023-03-16T03:11:00.747Z,27.73
2023-03-16T03:13:28.807Z,26.13
2023-03-16T03:15:56.691Z,26.00
2023-03-16T03:18:25.411Z,24.83
2023-03-16T03:20:54.954Z,25.63
2023-03-16T03:23:23.620Z,24.35
2023-03-16T03:25:51.462Z,27.45
2023-03-16T03:28:19.317Z,21.30
2023-03-16T03:30:47.167Z,26.98
2023-03-16T03:33:15.007Z,22.52
2023-03-16T03:35:43.012Z,22.52
2023-03-16T03:38:12.226Z,20.25
2023-03-16T03:40:40.176Z,24.00
2023-03-16T03:43:08.012Z,24.90
2023-03-16T03:45:35.888Z,29.65
2023-03-16T03:48:03.745Z,26.38
2023-03-16T03:50:31.581Z,27.27
2023-03-16T03:52:59.455Z,22.17
2023-03-16T03:55:28.867Z,27.05
2023-03-16T03:57:56.716Z,27.40
2023-03-16T04:00:24.641Z,22.83
2023-03-16T04:02:52.535Z,27.50
2023-03-16T04:05:20.461Z,24.95
2023-03-16T04:07:48.343Z,21.38
2023-03-16T04:10:16.348Z,28.50
2023-03-16T04:12:45.544Z,24.98
2023-03-16T04:15:13.514Z,29.83
2023-03-16T04:17:41.375Z,24.10
2023-03-16T04:20:15.207Z,23.85
2023-03-16T04:22:43.575Z,24.98
2023-03-16T04:25:12.299Z,27.67
2023-03-16T04:27:40.530Z,26.52
2023-03-16T04:30:13.862Z,26.90
2023-03-16T04:32:42.249Z,29.02
2023-03-16T04:35:10.846Z,28.02
2023-03-16T04:37:38.775Z,27.00
2023-03-16T04:40:11.814Z,36.55
2023-03-16T04:42:39.933Z,29.02
2023-03-16T04:45:10.288Z,30.48
2023-03-16T04:47:38.173Z,28.50
2023-03-16T04:50:06.947Z,24.67
2023-03-16T04:52:35.012Z,28.92
2023-03-16T04:55:02.956Z,29.02
2023-03-16T04:57:30.889Z,33.25
2023-03-16T04:59:58.714Z,25.90
2023-03-16T05:02:28.084Z,29.08
2023-03-16T05:04:56.111Z,31.23
2023-03-16T05:07:24.515Z,26.20
2023-03-16T05:09:52.367Z,24.95
2023-03-16T05:12:20.377Z,25.92
2023-03-16T05:14:48.214Z,25.58
2023-03-16T05:17:16.087Z,24.95
2023-03-16T05:19:45.435Z,26.98
2023-03-16T05:22:13.299Z,29.95
2023-03-16T05:24:41.146Z,26.48
2023-03-16T05:27:09.178Z,28.98
2023-03-16T05:29:37.045Z,23.63
2023-03-16T05:32:06.384Z,29.48
2023-03-16T05:34:37.226Z,22.80
2023-03-16T05:37:06.490Z,25.42
2023-03-16T05:39:34.452Z,25.35
2023-03-16T05:42:02.652Z,26.45
2023-03-16T05:44:30.673Z,29.35
2023-03-16T05:46:58.720Z,26.48
2023-03-16T05:49:26.663Z,22.90
2023-03-16T05:51:54.545Z,26.48
2023-03-16T05:54:24.151Z,24.60
2023-03-16T05:56:51.982Z,28.98
2023-03-16T05:59:19.844Z,27.95
2023-03-16T06:01:49.408Z,28.63
2023-03-16T06:04:17.430Z,29.05
2023-03-16T06:06:45.298Z,25.60
2023-03-16T06:09:13.084Z,24.80
2023-03-16T06:11:42.248Z,29.55
2023-03-16T06:14:10.054Z,26.80
2023-03-16T06:16:38.029Z,23.15
2023-03-16T06:19:05.995Z,24.50
2023-03-16T06:21:33.912Z,22.73
2023-03-16T06:24:02.405Z,28.17
2023-03-16T06:26:30.248Z,25.25
2023-03-16T06:28:59.722Z,20.20
2023-03-16T06:31:27.771Z,22.63
2023-03-16T06:33:55.669Z,24.23
2023-03-16T06:36:23.595Z,26.15
2023-03-16T06:38:51.618Z,22.38
2023-03-16T06:41:19.452Z,24.88
2023-03-16T06:43:47.337Z,23.88
2023-03-16T06:46:16.622Z,23.42
2023-03-16T06:48:44.559Z,22.15
2023-03-16T06:51:12.385Z,22.55
2023-03-16T06:53:41.564Z,22.05
2023-03-16T06:56:09.503Z,18.65
2023-03-16T06:58:37.365Z,19.58
2023-03-16T07:01:05.892Z,17.73
2023-03-16T07:03:35.206Z,18.90
2023-03-16T07:06:03.143Z,16.88
2023-03-16T07:08:31.215Z,18.58
2023-03-16T07:10:59.211Z,18.48
2023-03-16T07:13:27.104Z,20.40
2023-03-16T07:15:55.084Z,17.33
2023-03-16T07:18:22.997Z,19.58
2023-03-16T07:20:53.846Z,15.15
2023-03-16T07:23:21.861Z,12.98
2023-03-16T07:25:49.750Z,14.05
2023-03-16T07:28:17.633Z,17.45
2023-03-16T07:31:02.480Z,16.13
2023-03-16T07:33:32.179Z,14.80
2023-03-16T07:36:04.233Z,14.32
2023-03-16T07:38:32.663Z,14.25
2023-03-16T07:41:00.931Z,11.70
2023-03-16T07:43:29.305Z,14.05
2023-03-16T07:45:57.335Z,15.88
2023-03-16T07:48:25.985Z,12.85
2023-03-16T07:50:54.243Z,10.25
2023-03-16T07:53:23.625Z,14.68
2023-03-16T07:55:51.478Z,11.98
2023-03-16T07:58:19.351Z,11.70
2023-03-16T08:00:47.290Z,14.15
2023-03-16T08:03:15.295Z,12.30
2023-03-16T08:05:43.194Z,10.80
2023-03-16T08:08:11.135Z,10.68
2023-03-16T08:10:40.379Z,9.27
2023-03-16T08:13:08.623Z,10.27
2023-03-16T08:15:36.545Z,10.88
2023-03-16T08:18:04.665Z,10.00
2023-03-16T08:20:32.648Z,9.32
2023-03-16T08:23:00.635Z,9.55
2023-03-16T08:25:28.546Z,7.07
2023-03-16T08:27:58.110Z,9.05
2023-03-16T08:30:26.798Z,8.13
2023-03-16T08:32:55.004Z,8.73
2023-03-16T08:35:22.903Z,9.38
2023-03-16T08:37:50.876Z,11.48
2023-03-16T08:40:21.416Z,6.47
2023-03-16T08:42:50.175Z,6.28
2023-03-16T08:45:19.974Z,6.93
2023-03-16T08:47:47.979Z,6.00
2023-03-16T08:50:16.234Z,7.80
2023-03-16T08:52:44.151Z,7.38
2023-03-16T08:55:13.243Z,7.50
2023-03-16T08:57:41.123Z,9.80
2023-03-16T09:00:13.328Z,6.95
2023-03-16T09:02:43.084Z,6.65
2023-03-16T09:05:12.602Z,9.40
2023-03-16T09:07:40.978Z,6.20
2023-03-16T09:10:13.360Z,10.45
2023-03-16T09:12:41.348Z,5.85
2023-03-16T09:15:12.093Z,5.05
2023-03-16T09:17:41.646Z,9.15
2023-03-16T09:20:22.227Z,5.45
2023-03-16T09:22:50.741Z,5.75
2023-03-16T09:25:19.871Z,9.60
2023-03-16T09:27:47.747Z,4.93
2023-03-16T09:30:16.714Z,5.15
2023-03-16T09:32:44.912Z,6.20
2023-03-16T09:35:14.765Z,8.20
2023-03-16T09:37:45.303Z,5.70
2023-03-16T09:40:24.698Z,4.43
2023-03-16T09:43:11.193Z,5.40
2023-03-16T09:45:44.894Z,4.13
2023-03-16T09:48:13.937Z,7.60
2023-03-16T09:50:49.271Z,5.70
2023-03-16T09:53:40.398Z,7.72
2023-03-16T09:56:12.414Z,5.35
2023-03-16T09:58:40.729Z,7.07
2023-03-16T10:01:16.807Z,6.32
2023-03-16T10:04:00.731Z,6.00
2023-03-16T10:06:31.151Z,3.88
2023-03-16T10:09:10.390Z,4.60
2023-03-16T10:11:41.174Z,4.78
2023-03-16T10:14:17.690Z,6.65
2023-03-16T10:16:51.365Z,5.45
2023-03-16T10:19:23.298Z,4.07
2023-03-16T10:21:55.857Z,6.32
2023-03-16T10:24:35.727Z,4.25
2023-03-16T10:27:06.437Z,4.18
2023-03-16T10:29:38.616Z,5.45
2023-03-16T10:32:16.406Z,4.75
2023-03-16T10:34:49.727Z,4.80
2023-03-16T10:37:19.226Z,2.40
2023-03-16T10:39:49.649Z,3.75
2023-03-16T10:42:20.037Z,3.45
2023-03-16T10:44:48.303Z,3.00
2023-03-16T10:47:21.135Z,3.55
2023-03-16T10:49:51.240Z,4.18
2023-03-16T10:52:26.014Z,3.22
2023-03-16T10:54:59.122Z,2.47
2023-03-16T10:57:28.594Z,2.15
2023-03-16T11:00:00.559Z,5.15
2023-03-16T11:02:34.119Z,3.13
2023-03-16T11:05:13.951Z,5.07
2023-03-16T11:07:49.786Z,4.50
2023-03-16T11:10:30.411Z,3.28
2023-03-16T11:13:03.997Z,3.55
2023-03-16T11:15:39.718Z,3.47
2023-03-16T11:18:10.631Z,5.43
2023-03-16T11:20:38.922Z,3.45
2023-03-16T11:23:16.321Z,3.33
2023-03-16T11:25:50.032Z,3.22
2023-03-16T11:28:27.872Z,3.47
2023-03-16T11:31:06.338Z,4.40
2023-03-16T11:33:34.913Z,4.85
2023-03-16T11:36:18.566Z,4.72
2023-03-16T11:38:56.751Z,3.80
2023-03-16T11:41:34.789Z,4.38
2023-03-16T11:44:13.253Z,3.00
2023-03-16T11:46:50.160Z,2.38
2023-03-16T11:49:44.483Z,7.07
2023-03-16T11:52:23.400Z,3.60
2023-03-16T11:55:02.500Z,5.65
2023-03-16T11:57:40.997Z,3.15
2023-03-16T12:00:21.245Z,6.35
2023-03-16T12:03:03.337Z,5.35
2023-03-16T12:05:43.850Z,2.38
2023-03-16T12:08:26.030Z,2.92
2023-03-16T12:11:00.648Z,3.60
2023-03-16T12:13:54.637Z,4.25
2023-03-16T12:16:33.215Z,4.22
2023-03-16T12:19:12.168Z,2.80
2023-03-16T12:21:44.560Z,3.53
2023-03-16T12:24:18.139Z,3.45
2023-03-16T12:26:49.682Z,4.97
2023-03-16T12:29:28.906Z,3.33
2023-03-16T12:32:04.623Z,4.88
2023-03-16T12:34:39.397Z,6.53
2023-03-16T12:37:23.474Z,4.50
2023-03-16T12:40:10.666Z,3.90
2023-03-16T12:42:57.445Z,6.05
2023-03-16T12:45:41.123Z,2.63
2023-03-16T12:48:20.132Z,5.13
2023-03-16T12:50:51.265Z,5.38
2023-03-16T12:53:30.713Z,3.15
2023-03-16T12:55:58.620Z,2.78
2023-03-16T12:58:28.468Z,3.58
2023-03-16T13:00:59.328Z,1.83
2023-03-16T13:03:29.698Z,3.20
2023-03-16T13:06:00.821Z,4.72
2023-03-16T13:08:30.576Z,4.00
2023-03-16T13:11:03.250Z,3.00
2023-03-16T13:13:34.123Z,3.58
2023-03-16T13:16:09.513Z,4.95
2023-03-16T13:18:41.786Z,1.73
2023-03-16T13:21:21.484Z,2.30
2023-03-16T13:23:56.340Z,2.13
2023-03-16T13:26:39.032Z,2.92
2023-03-16T13:29:22.060Z,2.17
2023-03-16T13:31:51.178Z,5.65
2023-03-16T13:34:22.616Z,2.40
2023-03-16T13:36:56.836Z,2.65
2023-03-16T13:39:28.260Z,2.70
2023-03-16T13:41:59.521Z,6.07
2023-03-16T13:44:30.070Z,3.03
2023-03-16T13:46:58.096Z,2.40
2023-03-16T13:49:25.994Z,3.10
2023-03-16T13:51:54.031Z,2.75
2023-03-16T13:54:24.967Z,3.22
2023-03-16T13:56:54.071Z,3.22
2023-03-16T13:59:22.846Z,2.53
2023-03-16T14:01:59.551Z,2.15
2023-03-16T14:04:29.238Z,2.65
2023-03-16T14:06:59.090Z,2.38
2023-03-16T14:09:30.639Z,5.20
2023-03-16T14:11:58.974Z,2.40
2023-03-16T14:14:30.116Z,3.70
2023-03-16T14:17:12.582Z,3.75
2023-03-16T14:19:46.212Z,3.47
2023-03-16T14:22:16.389Z,2.33
2023-03-16T14:24:46.837Z,3.25
2023-03-16T14:27:24.321Z,2.75
2023-03-16T14:29:57.626Z,6.28
2023-03-16T14:32:29.504Z,5.10
2023-03-16T14:35:12.950Z,3.00
2023-03-16T14:37:42.127Z,3.97
2023-03-16T14:40:24.255Z,3.35
2023-03-16T14:42:52.917Z,2.53
2023-03-16T14:45:22.653Z,3.20
2023-03-16T14:47:53.698Z,1.77
2023-03-16T14:50:25.400Z,2.42
2023-03-16T14:52:56.444Z,3.13
2023-03-16T14:55:25.692Z,3.53
2023-03-16T14:57:53.912Z,3.33
2023-03-16T15:00:23.181Z,3.40
2023-03-16T15:03:01.570Z,1.77
2023-03-16T15:05:36.334Z,4.20
2023-03-16T15:08:05.896Z,3.72
2023-03-16T15:10:35.957Z,2.33
2023-03-16T15:13:13.293Z,2.10
2023-03-16T15:15:42.903Z,2.10
2023-03-16T15:18:12.204Z,3.63
2023-03-16T15:20:43.388Z,1.70
2023-03-16T15:23:15.771Z,2.53
2023-03-16T15:25:44.727Z,4.97
2023-03-16T15:28:15.734Z,2.40
2023-03-16T15:30:45.132Z,2.40
2023-03-16T15:33:14.626Z,3.65
2023-03-16T15:35:43.380Z,1.80
2023-03-16T15:38:15.841Z,3.22
2023-03-16T15:40:45.555Z,2.67
2023-03-16T15:43:14.343Z,3.25
2023-03-16T15:45:43.443Z,4.25
2023-03-16T15:48:11.993Z,4.97
2023-03-16T15:50:45.001Z,5.00
2023-03-16T15:53:29.885Z,4.55
2023-03-16T15:56:03.036Z,5.55
2023-03-16T15:58:32.541Z,3.60
2023-03-16T16:01:03.547Z,2.83
2023-03-16T16:03:31.546Z,2.40
2023-03-16T16:06:00.986Z,3.47
2023-03-16T16:08:28.891Z,3.28
2023-03-16T16:10:57.267Z,2.20
2023-03-16T16:13:43.054Z,6.47
2023-03-16T16:16:14.400Z,2.83
2023-03-16T16:18:42.872Z,3.95
2023-03-16T16:21:17.086Z,4.57
2023-03-16T16:23:45.071Z,4.78
2023-03-16T16:26:26.315Z,5.55
2023-03-16T16:28:58.397Z,5.30
2023-03-16T16:31:27.652Z,4.05
2023-03-16T16:33:56.164Z,3.38
2023-03-16T16:36:25.387Z,5.78
2023-03-16T16:38:56.898Z,5.60
2023-03-16T16:41:28.418Z,4.70
2023-03-16T16:43:57.900Z,6.00
2023-03-16T16:46:27.354Z,4.25
2023-03-16T16:49:00.011Z,3.83
2023-03-16T16:51:30.866Z,3.83
2023-03-16T16:54:00.704Z,6.35
2023-03-16T16:56:30.655Z,2.45
2023-03-16T16:58:59.617Z,4.70
2023-03-16T17:01:29.918Z,5.22
2023-03-16T17:03:57.962Z,4.93
2023-03-16T17:06:27.740Z,8.70
2023-03-16T17:08:56.913Z,4.55
2023-03-16T17:11:26.985Z,9.35
2023-03-16T17:13:56.917Z,4.68
2023-03-16T17:16:26.591Z,5.90
2023-03-16T17:18:55.339Z,3.38
2023-03-16T17:21:25.344Z,7.80
2023-03-16T17:23:53.680Z,8.82
2023-03-16T17:26:25.185Z,5.22
2023-03-16T17:28:57.832Z,6.43
2023-03-16T17:31:27.676Z,6.63
2023-03-16T17:33:56.946Z,5.38
2023-03-16T17:36:25.184Z,10.00
2023-03-16T17:38:53.645Z,10.93
2023-03-16T17:41:25.513Z,10.80
2023-03-16T17:43:55.430Z,7.78
2023-03-16T17:46:26.197Z,10.18
2023-03-16T17:48:55.992Z,11.05
2023-03-16T17:51:25.914Z,8.57
2023-03-16T17:53:55.711Z,11.15
2023-03-16T17:56:26.853Z,7.20
2023-03-16T17:58:57.323Z,8.02
2023-03-16T18:01:29.061Z,12.40
2023-03-16T18:03:57.896Z,5.93
2023-03-16T18:06:29.088Z,5.65
2023-03-16T18:08:57.841Z,11.88
2023-03-16T18:11:32.213Z,5.88
2023-03-16T18:14:00.117Z,8.00
2023-03-16T18:16:28.550Z,8.85
2023-03-16T18:18:59.901Z,6.18
2023-03-16T18:21:28.318Z,5.13
2023-03-16T18:23:56.898Z,7.00
2023-03-16T18:26:24.913Z,6.68
2023-03-16T18:28:55.479Z,7.15
2023-03-16T18:31:26.164Z,10.30
2023-03-16T18:33:56.335Z,7.68
2023-03-16T18:36:27.885Z,7.65
2023-03-16T18:38:57.540Z,8.63
2023-03-16T18:41:27.522Z,9.20
2023-03-16T18:43:58.927Z,6.18
2023-03-16T18:46:29.033Z,14.65
2023-03-16T18:48:59.173Z,7.88
2023-03-16T18:51:27.574Z,9.65
2023-03-16T18:53:55.514Z,7.05
2023-03-16T18:56:25.084Z,6.43
2023-03-16T18:58:53.588Z,5.80
2023-03-16T19:01:26.063Z,11.75
2023-03-16T19:03:55.233Z,9.75
2023-03-16T19:06:27.213Z,10.55
2023-03-16T19:08:55.832Z,6.72
2023-03-16T19:11:23.715Z,8.95
2023-03-16T19:13:54.722Z,6.95
2023-03-16T19:16:24.247Z,7.93
2023-03-16T19:18:52.130Z,8.63
2023-03-16T19:21:22.857Z,7.13
2023-03-16T19:23:56.418Z,8.00
2023-03-16T19:26:24.563Z,6.82
2023-03-16T19:28:52.640Z,7.35
2023-03-16T19:31:23.194Z,10.13
2023-03-16T19:33:52.966Z,5.03
2023-03-16T19:36:24.019Z,4.97
2023-03-16T19:38:52.536Z,7.60
2023-03-16T19:41:27.037Z,6.13
2023-03-16T19:43:57.647Z,7.43
2023-03-16T19:46:27.063Z,7.07
2023-03-16T19:48:56.712Z,8.65
2023-03-16T19:51:25.348Z,7.28
2023-03-16T19:53:53.801Z,11.27
2023-03-16T19:56:26.236Z,7.20
2023-03-16T19:58:55.578Z,6.28
2023-03-16T20:01:30.328Z,5.25
2023-03-16T20:04:04.030Z,6.93
2023-03-16T20:06:33.323Z,10.90
2023-03-16T20:09:01.448Z,8.75
2023-03-16T20:11:31.578Z,5.60
2023-03-16T20:14:01.196Z,9.30
2023-03-16T20:16:31.249Z,7.60
2023-03-16T20:19:02.908Z,7.47
2023-03-16T20:21:30.856Z,7.05
2023-03-16T20:23:58.707Z,5.30
2023-03-16T20:26:31.574Z,7.00
2023-03-16T20:29:00.403Z,6.05
2023-03-16T20:31:31.245Z,7.63
2023-03-16T20:34:00.483Z,4.88
2023-03-16T20:36:28.549Z,7.95
2023-03-16T20:38:56.390Z,8.13
2023-03-16T20:41:27.849Z,7.80
2023-03-16T20:43:57.330Z,9.50
2023-03-16T20:46:27.846Z,6.07
2023-03-16T20:48:56.198Z,12.80
2023-03-16T20:51:25.487Z,8.20
2023-03-16T20:53:53.331Z,7.93
2023-03-16T20:56:23.990Z,7.50
2023-03-16T20:58:55.877Z,14.50
2023-03-16T21:01:24.992Z,7.43
2023-03-16T21:03:55.229Z,7.05
2023-03-16T21:06:27.050Z,6.80
2023-03-16T21:08:56.835Z,9.50
2023-03-16T21:11:26.479Z,7.47
2023-03-16T21:13:55.005Z,8.38
2023-03-16T21:16:23.212Z,6.63
2023-03-16T21:18:51.205Z,6.78
2023-03-16T21:21:21.223Z,6.30
2023-03-16T21:23:50.520Z,9.55
2023-03-16T21:26:21.196Z,8.27
2023-03-16T21:28:55.663Z,4.65
2023-03-16T21:31:23.943Z,8.40
2023-03-16T21:33:53.746Z,7.53
2023-03-16T21:36:26.098Z,8.98
2023-03-16T21:38:56.379Z,9.55
2023-03-16T21:41:24.443Z,6.32
2023-03-16T21:43:52.574Z,6.82
2023-03-16T21:46:22.590Z,6.15
2023-03-16T21:48:53.165Z,7.45
2023-03-16T21:51:24.818Z,10.55
2023-03-16T21:53:53.453Z,6.13
2023-03-16T21:56:25.783Z,7.30
2023-03-16T21:58:54.985Z,13.23
2023-03-16T22:01:24.994Z,7.72
2023-03-16T22:03:54.817Z,8.48
2023-03-16T22:06:23.637Z,9.77
2023-03-16T22:08:52.291Z,5.47
2023-03-16T22:11:23.574Z,8.55
2023-03-16T22:13:54.030Z,9.73
2023-03-16T22:16:24.058Z,6.07
2023-03-16T22:18:55.460Z,9.60
2023-03-16T22:21:30.754Z,6.30
2023-03-16T22:23:59.516Z,9.48
2023-03-16T22:26:29.644Z,11.13
2023-03-16T22:28:59.629Z,12.77
2023-03-16T22:31:32.650Z,8.40
2023-03-16T22:34:01.964Z,6.32
2023-03-16T22:36:32.053Z,5.65
2023-03-16T22:39:02.591Z,5.22
2023-03-16T22:41:32.315Z,7.53
2023-03-16T22:44:01.620Z,7.40
2023-03-16T22:46:30.493Z,6.82
2023-03-16T22:48:59.644Z,6.05
2023-03-16T22:51:30.728Z,8.02
2023-03-16T22:54:01.686Z,7.25
2023-03-16T22:56:33.423Z,6.32
2023-03-16T22:59:03.719Z,8.38
2023-03-16T23:01:34.671Z,5.72
2023-03-16T23:04:03.333Z,6.95
2023-03-16T23:06:32.557Z,6.47
2023-03-16T23:09:00.626Z,7.50
2023-03-16T23:11:30.932Z,7.50
2023-03-16T23:14:00.647Z,6.80
2023-03-16T23:16:31.182Z,8.52
2023-03-16T23:18:59.391Z,6.60
2023-03-16T23:21:31.894Z,10.50
2023-03-16T23:24:03.918Z,9.75
2023-03-16T23:26:32.745Z,7.47
2023-03-16T23:29:03.180Z,7.80
2023-03-16T23:31:31.840Z,8.27
2023-03-16T23:33:59.921Z,7.78
2023-03-16T23:36:28.276Z,8.38
2023-03-16T23:38:56.621Z,9.10
2023-03-16T23:41:26.233Z,9.88
2023-03-16T23:43:55.388Z,9.32
2023-03-16T23:46:27.481Z,8.25
2023-03-16T23:49:01.598Z,10.50
2023-03-16T23:51:32.196Z,9.55
2023-03-16T23:54:01.087Z,9.05
2023-03-16T23:56:29.739Z,6.53
2023-03-16T23:58:58.902Z,8.30
